createdAt,value
2023-07-10T00:01:00.102Z,543.00
2023-07-10T00:02:00.062Z,542.00
2023-07-10T00:03:00.200Z,543.00
2023-07-10T00:04:00.302Z,544.00
2023-07-10T00:05:00.265Z,547.00
2023-07-10T00:06:00.300Z,546.00
2023-07-10T00:07:00.349Z,549.00
2023-07-10T00:08:00.423Z,549.00
2023-07-10T00:09:00.464Z,548.00
2023-07-10T00:10:00.533Z,546.00
2023-07-10T00:11:00.582Z,546.00
2023-07-10T00:12:00.618Z,547.00
2023-07-10T00:13:00.688Z,548.00
2023-07-10T00:14:00.812Z,547.00
2023-07-10T00:15:00.807Z,547.00
2023-07-10T00:16:00.940Z,547.00
2023-07-10T00:17:00.960Z,548.00
2023-07-10T00:18:01.021Z,548.00
2023-07-10T00:19:00.989Z,546.00
2023-07-10T00:20:01.087Z,549.00
2023-07-10T00:21:01.157Z,550.00
2023-07-10T00:22:01.159Z,549.00
2023-07-10T00:23:01.217Z,548.00
2023-07-10T00:24:01.299Z,549.00
2023-07-10T00:25:01.356Z,547.00
2023-07-10T00:26:01.539Z,543.00
2023-07-10T00:27:01.497Z,544.00
2023-07-10T00:28:01.509Z,544.00
2023-07-10T00:29:01.560Z,547.00
2023-07-10T00:30:01.637Z,548.00
2023-07-10T00:31:01.700Z,548.00
2023-07-10T00:32:01.734Z,551.00
2023-07-10T00:33:01.867Z,549.00
2023-07-10T00:34:01.841Z,549.00
2023-07-10T00:35:01.920Z,548.00
2023-07-10T00:36:02.116Z,550.00
2023-07-10T00:37:02.038Z,551.00
2023-07-10T00:38:02.208Z,552.00
2023-07-10T00:39:02.145Z,553.00
2023-07-10T00:40:02.174Z,553.00
2023-07-10T00:41:02.237Z,553.00
2023-07-10T00:42:02.292Z,555.00
2023-07-10T00:43:02.333Z,556.00
2023-07-10T00:44:02.425Z,553.00
2023-07-10T00:45:02.431Z,553.00
2023-07-10T00:46:02.670Z,555.00
2023-07-10T00:47:02.661Z,555.00
2023-07-10T00:48:02.672Z,555.00
2023-07-10T00:49:02.686Z,555.00
2023-07-10T00:50:02.744Z,555.00
2023-07-10T00:51:02.767Z,556.00
2023-07-10T00:52:02.840Z,554.00
2023-07-10T00:53:02.873Z,553.00
2023-07-10T00:54:02.922Z,555.00
2023-07-10T00:55:03.007Z,556.00
2023-07-10T00:56:03.259Z,556.00
2023-07-10T00:57:03.102Z,556.00
2023-07-10T00:58:05.087Z,557.00
2023-07-10T00:59:03.128Z,557.00
2023-07-10T01:00:03.142Z,556.00
2023-07-10T01:01:03.167Z,557.00
2023-07-10T01:02:03.178Z,554.00
2023-07-10T01:03:03.152Z,555.00
2023-07-10T01:04:03.118Z,553.00
2023-07-10T01:05:03.097Z,555.00
2023-07-10T01:06:03.411Z,554.00
2023-07-10T01:07:03.069Z,555.00
2023-07-10T01:08:03.058Z,557.00
2023-07-10T01:09:03.054Z,554.00
2023-07-10T01:10:03.046Z,553.00
2023-07-10T01:11:03.061Z,551.00
2023-07-10T01:12:03.037Z,553.00
2023-07-10T01:13:03.029Z,552.00
2023-07-10T01:14:03.093Z,552.00
2023-07-10T01:15:03.029Z,551.00
2023-07-10T01:16:03.260Z,551.00
2023-07-10T01:17:03.118Z,550.00
2023-07-10T01:18:03.085Z,550.00
2023-07-10T01:19:03.009Z,552.00
2023-07-10T01:20:02.966Z,553.00
2023-07-10T01:21:03.002Z,551.00
2023-07-10T01:22:02.990Z,552.00
2023-07-10T01:23:02.958Z,549.00
2023-07-10T01:24:02.954Z,550.00
2023-07-10T01:25:02.975Z,550.00
2023-07-10T01:26:03.171Z,551.00
2023-07-10T01:27:02.924Z,552.00
2023-07-10T01:28:02.928Z,553.00
2023-07-10T01:29:03.000Z,552.00
2023-07-10T01:30:03.042Z,551.00
2023-07-10T01:31:03.137Z,551.00
2023-07-10T01:32:03.148Z,550.00
2023-07-10T01:33:03.242Z,552.00
2023-07-10T01:34:03.282Z,550.00
2023-07-10T01:35:03.332Z,550.00
2023-07-10T01:36:03.743Z,550.00
2023-07-10T01:37:03.405Z,551.00
2023-07-10T01:38:03.494Z,554.00
2023-07-10T01:39:03.525Z,554.00
2023-07-10T01:40:03.554Z,554.00
2023-07-10T01:41:03.618Z,552.00
2023-07-10T01:42:03.687Z,551.00
2023-07-10T01:43:03.728Z,551.00
2023-07-10T01:44:03.807Z,552.00
2023-07-10T01:45:03.838Z,551.00
2023-07-10T01:46:04.093Z,551.00
2023-07-10T01:47:03.977Z,550.00
2023-07-10T01:48:04.186Z,550.00
2023-07-10T01:49:04.115Z,550.00
2023-07-10T01:50:04.100Z,551.00
2023-07-10T01:51:04.192Z,552.00
2023-07-10T01:52:04.241Z,552.00
2023-07-10T01:53:04.296Z,555.00
2023-07-10T01:54:04.333Z,551.00
2023-07-10T01:55:04.409Z,553.00
2023-07-10T01:56:04.699Z,554.00
2023-07-10T01:57:04.484Z,553.00
2023-07-10T01:58:04.567Z,555.00
2023-07-10T01:59:04.619Z,553.00
2023-07-10T02:00:04.671Z,555.00
2023-07-10T02:01:04.752Z,553.00
2023-07-10T02:02:04.796Z,552.00
2023-07-10T02:03:04.890Z,552.00
2023-07-10T02:04:04.967Z,554.00
2023-07-10T02:05:04.939Z,554.00
2023-07-10T02:06:05.255Z,556.00
2023-07-10T02:07:05.115Z,556.00
2023-07-10T02:08:05.116Z,554.00
2023-07-10T02:09:05.189Z,552.00
2023-07-10T02:10:05.262Z,554.00
2023-07-10T02:11:05.325Z,553.00
2023-07-10T02:12:05.392Z,555.00
2023-07-10T02:13:05.449Z,556.00
2023-07-10T02:14:05.512Z,557.00
2023-07-10T02:15:05.546Z,556.00
2023-07-10T02:16:05.795Z,558.00
2023-07-10T02:17:05.735Z,558.00
2023-07-10T02:18:05.726Z,559.00
2023-07-10T02:19:05.780Z,559.00
2023-07-10T02:20:05.854Z,559.00
2023-07-10T02:21:05.886Z,561.00
2023-07-10T02:22:05.971Z,563.00
2023-07-10T02:23:06.038Z,565.00
2023-07-10T02:24:06.081Z,565.00
2023-07-10T02:25:06.116Z,568.00
2023-07-10T02:26:06.415Z,567.00
2023-07-10T02:27:06.262Z,567.00
2023-07-10T02:28:06.299Z,569.00
2023-07-10T02:29:06.364Z,569.00
2023-07-10T02:30:06.455Z,568.00
2023-07-10T02:31:06.511Z,567.00
2023-07-10T02:32:06.565Z,567.00
2023-07-10T02:33:06.601Z,569.00
2023-07-10T02:34:06.648Z,569.00
2023-07-10T02:35:06.742Z,570.00
2023-07-10T02:36:07.117Z,571.00
2023-07-10T02:37:06.847Z,569.00
2023-07-10T02:38:06.930Z,569.00
2023-07-10T02:39:06.991Z,569.00
2023-07-10T02:40:07.015Z,568.00
2023-07-10T02:41:07.078Z,570.00
2023-07-10T02:42:07.146Z,570.00
2023-07-10T02:43:07.193Z,567.00
2023-07-10T02:44:07.234Z,566.00
2023-07-10T02:45:07.326Z,567.00
2023-07-10T02:46:07.661Z,569.00
2023-07-10T02:47:07.425Z,568.00
2023-07-10T02:48:07.502Z,570.00
2023-07-10T02:49:07.530Z,568.00
2023-07-10T02:50:07.649Z,568.00
2023-07-10T02:51:07.757Z,567.00
2023-07-10T02:52:07.769Z,567.00
2023-07-10T02:53:07.832Z,568.00
2023-07-10T02:54:07.875Z,569.00
2023-07-10T02:55:07.932Z,569.00
2023-07-10T02:56:08.356Z,568.00
2023-07-10T02:57:08.024Z,569.00
2023-07-10T02:58:08.067Z,570.00
2023-07-10T02:59:08.105Z,569.00
2023-07-10T03:00:08.189Z,568.00
2023-07-10T03:01:08.282Z,568.00
2023-07-10T03:02:08.281Z,567.00
2023-07-10T03:03:08.362Z,567.00
2023-07-10T03:04:08.403Z,569.00
2023-07-10T03:05:08.503Z,569.00
2023-07-10T03:06:08.559Z,570.00
2023-07-10T03:07:08.598Z,572.00
2023-07-10T03:08:08.673Z,573.00
2023-07-10T03:09:08.692Z,575.00
2023-07-10T03:10:08.781Z,576.00
2023-07-10T03:11:08.833Z,577.00
2023-07-10T03:12:08.860Z,577.00
2023-07-10T03:13:08.925Z,577.00
2023-07-10T03:14:09.132Z,576.00
2023-07-10T03:15:09.032Z,576.00
2023-07-10T03:16:09.436Z,577.00
2023-07-10T03:17:09.169Z,577.00
2023-07-10T03:18:09.230Z,576.00
2023-07-10T03:19:09.287Z,573.00
2023-07-10T03:20:09.328Z,571.00
2023-07-10T03:21:09.380Z,570.00
2023-07-10T03:22:09.415Z,569.00
2023-07-10T03:23:09.474Z,571.00
2023-07-10T03:24:09.521Z,572.00
2023-07-10T03:25:09.607Z,569.00
2023-07-10T03:26:09.669Z,566.00
2023-07-10T03:27:09.726Z,564.00
2023-07-10T03:28:09.784Z,565.00
2023-07-10T03:29:09.845Z,568.00
2023-07-10T03:30:09.921Z,566.00
2023-07-10T03:31:10.009Z,567.00
2023-07-10T03:32:10.019Z,569.00
2023-07-10T03:33:10.060Z,572.00
2023-07-10T03:34:10.144Z,574.00
2023-07-10T03:35:10.176Z,574.00
2023-07-10T03:36:10.262Z,576.00
2023-07-10T03:37:10.305Z,573.00
2023-07-10T03:38:10.495Z,570.00
2023-07-10T03:39:10.548Z,569.00
2023-07-10T03:40:10.512Z,568.00
2023-07-10T03:41:10.607Z,568.00
2023-07-10T03:42:10.589Z,570.00
2023-07-10T03:43:10.682Z,569.00
2023-07-10T03:44:10.747Z,569.00
2023-07-10T03:45:10.818Z,570.00
2023-07-10T03:46:10.892Z,570.00
2023-07-10T03:47:10.945Z,570.00
2023-07-10T03:48:10.959Z,570.00
2023-07-10T03:49:10.996Z,571.00
2023-07-10T03:50:11.075Z,572.00
2023-07-10T03:51:11.152Z,572.00
2023-07-10T03:52:11.186Z,569.00
2023-07-10T03:53:11.243Z,572.00
2023-07-10T03:54:11.313Z,571.00
2023-07-10T03:55:11.374Z,573.00
2023-07-10T03:56:11.451Z,574.00
2023-07-10T03:57:11.483Z,573.00
2023-07-10T03:58:11.519Z,574.00
2023-07-10T03:59:11.551Z,573.00
2023-07-10T04:00:11.568Z,575.00
2023-07-10T04:01:11.634Z,576.00
2023-07-10T04:02:11.649Z,579.00
2023-07-10T04:03:11.763Z,579.00
2023-07-10T04:04:11.728Z,579.00
2023-07-10T04:05:11.777Z,584.00
2023-07-10T04:06:11.893Z,583.00
2023-07-10T04:07:11.915Z,583.00
2023-07-10T04:08:11.993Z,585.00
2023-07-10T04:09:12.063Z,586.00
2023-07-10T04:10:12.088Z,588.00
2023-07-10T04:11:12.184Z,586.00
2023-07-10T04:12:12.217Z,586.00
2023-07-10T04:13:12.275Z,585.00
2023-07-10T04:14:12.382Z,588.00
2023-07-10T04:15:12.387Z,587.00
2023-07-10T04:16:12.492Z,588.00
2023-07-10T04:17:12.524Z,588.00
2023-07-10T04:18:12.562Z,588.00
2023-07-10T04:19:12.627Z,586.00
2023-07-10T04:20:12.687Z,583.00
2023-07-10T04:21:12.762Z,583.00
2023-07-10T04:22:12.810Z,586.00
2023-07-10T04:23:12.860Z,587.00
2023-07-10T04:24:12.921Z,587.00
2023-07-10T04:25:12.930Z,587.00
2023-07-10T04:26:12.996Z,587.00
2023-07-10T04:27:13.039Z,587.00
2023-07-10T04:28:13.113Z,586.00
2023-07-10T04:29:13.147Z,586.00
2023-07-10T04:30:13.194Z,581.00
2023-07-10T04:31:13.270Z,580.00
2023-07-10T04:32:13.245Z,580.00
2023-07-10T04:33:13.288Z,580.00
2023-07-10T04:34:13.350Z,579.00
2023-07-10T04:35:13.309Z,581.00
2023-07-10T04:36:13.375Z,583.00
2023-07-10T04:37:13.377Z,585.00
2023-07-10T04:38:13.397Z,586.00
2023-07-10T04:39:13.446Z,584.00
2023-07-10T04:40:13.438Z,585.00
2023-07-10T04:41:13.438Z,583.00
2023-07-10T04:42:13.428Z,583.00
2023-07-10T04:43:13.389Z,579.00
2023-07-10T04:44:13.403Z,578.00
2023-07-10T04:45:13.392Z,578.00
2023-07-10T04:46:13.479Z,580.00
2023-07-10T04:47:13.529Z,583.00
2023-07-10T04:48:13.610Z,584.00
2023-07-10T04:49:13.548Z,589.00
2023-07-10T04:50:13.546Z,588.00
2023-07-10T04:51:13.625Z,590.00
2023-07-10T04:52:13.613Z,590.00
2023-07-10T04:53:13.651Z,590.00
2023-07-10T04:54:14.001Z,588.00
2023-07-10T04:55:13.693Z,590.00
2023-07-10T04:56:13.699Z,589.00
2023-07-10T04:57:13.776Z,589.00
2023-07-10T04:58:13.764Z,589.00
2023-07-10T04:59:13.788Z,588.00
2023-07-10T05:00:13.823Z,586.00
2023-07-10T05:01:13.857Z,588.00
2023-07-10T05:02:13.965Z,587.00
2023-07-10T05:03:13.910Z,587.00
2023-07-10T05:04:13.972Z,587.00
2023-07-10T05:05:13.964Z,586.00
2023-07-10T05:06:13.977Z,586.00
2023-07-10T05:07:13.978Z,587.00
2023-07-10T05:08:14.022Z,588.00
2023-07-10T05:09:14.024Z,589.00
2023-07-10T05:10:14.099Z,588.00
2023-07-10T05:11:14.131Z,588.00
2023-07-10T05:12:14.188Z,587.00
2023-07-10T05:13:14.231Z,585.00
2023-07-10T05:14:14.283Z,585.00
2023-07-10T05:15:14.301Z,587.00
2023-07-10T05:16:14.414Z,588.00
2023-07-10T05:17:14.433Z,587.00
2023-07-10T05:18:14.440Z,587.00
2023-07-10T05:19:14.486Z,586.00
2023-07-10T05:20:14.499Z,587.00
2023-07-10T05:21:14.534Z,588.00
2023-07-10T05:22:14.603Z,588.00
2023-07-10T05:23:14.627Z,586.00
2023-07-10T05:24:14.696Z,587.00
2023-07-10T05:25:14.745Z,587.00
2023-07-10T05:26:14.827Z,591.00
2023-07-10T05:27:14.864Z,589.00
2023-07-10T05:28:14.946Z,587.00
2023-07-10T05:29:14.972Z,588.00
2023-07-10T05:30:15.007Z,588.00
2023-07-10T05:31:15.149Z,588.00
2023-07-10T05:32:15.149Z,588.00
2023-07-10T05:33:15.219Z,587.00
2023-07-10T05:34:15.204Z,584.00
2023-07-10T05:35:15.257Z,585.00
2023-07-10T05:36:15.309Z,585.00
2023-07-10T05:37:15.330Z,584.00
2023-07-10T05:38:15.332Z,585.00
2023-07-10T05:39:15.371Z,585.00
2023-07-10T05:40:15.410Z,585.00
2023-07-10T05:41:15.504Z,585.00
2023-07-10T05:42:15.525Z,589.00
2023-07-10T05:43:15.561Z,588.00
2023-07-10T05:44:15.638Z,590.00
2023-07-10T05:45:15.670Z,585.00
2023-07-10T05:46:15.798Z,586.00
2023-07-10T05:47:15.837Z,589.00
2023-07-10T05:48:18.092Z,589.00
2023-07-10T05:49:16.020Z,587.00
2023-07-10T05:50:16.098Z,587.00
2023-07-10T05:51:16.156Z,587.00
2023-07-10T05:52:16.200Z,587.00
2023-07-10T05:53:16.238Z,587.00
2023-07-10T05:54:16.325Z,586.00
2023-07-10T05:55:16.336Z,586.00
2023-07-10T05:56:16.412Z,584.00
2023-07-10T05:57:16.449Z,584.00
2023-07-10T05:58:16.545Z,586.00
2023-07-10T05:59:16.568Z,587.00
2023-07-10T06:00:16.620Z,588.00
2023-07-10T06:01:16.673Z,587.00
2023-07-10T06:02:16.762Z,585.00
2023-07-10T06:03:16.834Z,584.00
2023-07-10T06:04:16.880Z,582.00
2023-07-10T06:05:16.901Z,582.00
2023-07-10T06:06:16.954Z,580.00
2023-07-10T06:07:16.963Z,583.00
2023-07-10T06:08:17.045Z,584.00
2023-07-10T06:09:17.075Z,584.00
2023-07-10T06:10:17.108Z,585.00
2023-07-10T06:11:17.148Z,586.00
2023-07-10T06:12:17.192Z,587.00
2023-07-10T06:13:17.159Z,584.00
2023-07-10T06:14:17.258Z,584.00
2023-07-10T06:15:17.868Z,584.00
2023-07-10T06:16:17.239Z,585.00
2023-07-10T06:17:17.252Z,588.00
2023-07-10T06:18:17.281Z,587.00
2023-07-10T06:19:17.299Z,588.00
2023-07-10T06:20:17.344Z,585.00
2023-07-10T06:21:17.371Z,584.00
2023-07-10T06:22:17.370Z,583.00
2023-07-10T06:23:17.406Z,582.00
2023-07-10T06:24:17.455Z,581.00
2023-07-10T06:25:17.486Z,580.00
2023-07-10T06:26:17.531Z,579.00
2023-07-10T06:27:17.563Z,581.00
2023-07-10T06:28:17.605Z,583.00
2023-07-10T06:29:17.693Z,583.00
2023-07-10T06:30:17.643Z,582.00
2023-07-10T06:31:17.724Z,583.00
2023-07-10T06:32:17.784Z,585.00
2023-07-10T06:33:17.774Z,587.00
2023-07-10T06:34:17.862Z,586.00
2023-07-10T06:35:17.899Z,584.00
2023-07-10T06:36:17.929Z,584.00
2023-07-10T06:37:17.967Z,582.00
2023-07-10T06:38:18.028Z,580.00
2023-07-10T06:39:18.049Z,579.00
2023-07-10T06:40:18.116Z,578.00
2023-07-10T06:41:18.083Z,577.00
2023-07-10T06:42:18.102Z,579.00
2023-07-10T06:43:18.147Z,577.00
2023-07-10T06:44:18.168Z,577.00
2023-07-10T06:45:18.289Z,581.00
2023-07-10T06:46:18.226Z,581.00
2023-07-10T06:47:18.204Z,584.00
2023-07-10T06:48:18.247Z,586.00
2023-07-10T06:49:18.253Z,587.00
2023-07-10T06:50:18.271Z,593.00
2023-07-10T06:51:18.263Z,596.00
2023-07-10T06:52:18.290Z,597.00
2023-07-10T06:53:26.460Z,602.00
2023-07-10T06:54:19.294Z,606.00
2023-07-10T06:55:18.283Z,607.00
2023-07-10T06:56:18.284Z,607.00
2023-07-10T06:57:18.292Z,606.00
2023-07-10T06:58:18.264Z,610.00
2023-07-10T06:59:18.270Z,614.00
2023-07-10T07:00:18.258Z,617.00
2023-07-10T07:01:18.259Z,617.00
2023-07-10T07:02:18.267Z,617.00
2023-07-10T07:03:18.401Z,619.00
2023-07-10T07:04:18.246Z,622.00
2023-07-10T07:05:18.245Z,626.00
2023-07-10T07:06:18.216Z,630.00
2023-07-10T07:07:18.214Z,631.00
2023-07-10T07:08:18.199Z,630.00
2023-07-10T07:09:18.210Z,627.00
2023-07-10T07:10:18.214Z,622.00
2023-07-10T07:11:18.179Z,621.00
2023-07-10T07:12:18.191Z,621.00
2023-07-10T07:13:21.273Z,621.00
2023-07-10T07:14:18.202Z,620.00
2023-07-10T07:15:18.143Z,621.00
2023-07-10T07:16:18.164Z,626.00
2023-07-10T07:17:18.122Z,629.00
2023-07-10T07:18:18.120Z,636.00
2023-07-10T07:19:18.114Z,639.00
2023-07-10T07:20:18.156Z,640.00
2023-07-10T07:21:18.135Z,638.00
2023-07-10T07:22:18.091Z,635.00
2023-07-10T07:23:18.098Z,631.00
2023-07-10T07:24:18.119Z,628.00
2023-07-10T07:25:18.098Z,626.00
2023-07-10T07:26:18.090Z,626.00
2023-07-10T07:27:18.124Z,620.00
2023-07-10T07:28:18.046Z,621.00
2023-07-10T07:29:18.052Z,621.00
2023-07-10T07:30:18.073Z,622.00
2023-07-10T07:31:18.126Z,621.00
2023-07-10T07:32:18.038Z,615.00
2023-07-10T07:33:18.015Z,614.00
2023-07-10T07:34:18.007Z,613.00
2023-07-10T07:35:18.008Z,611.00
2023-07-10T07:36:18.012Z,607.00
2023-07-10T07:37:18.016Z,606.00
2023-07-10T07:38:18.005Z,603.00
2023-07-10T07:39:17.962Z,602.00
2023-07-10T07:40:17.953Z,601.00
2023-07-10T07:41:17.953Z,601.00
2023-07-10T07:42:17.969Z,595.00
2023-07-10T07:43:17.981Z,591.00
2023-07-10T07:44:18.918Z,589.00
2023-07-10T07:45:17.963Z,587.00
2023-07-10T07:46:17.940Z,583.00
2023-07-10T07:47:17.983Z,581.00
2023-07-10T07:48:17.949Z,578.00
2023-07-10T07:49:17.933Z,572.00
2023-07-10T07:50:17.970Z,570.00
2023-07-10T07:51:17.982Z,567.00
2023-07-10T07:52:17.983Z,566.00
2023-07-10T07:53:18.031Z,565.00
2023-07-10T07:54:18.094Z,563.00
2023-07-10T07:55:18.152Z,560.00
2023-07-10T07:56:18.147Z,559.00
2023-07-10T07:57:18.138Z,558.00
2023-07-10T07:58:18.139Z,557.00
2023-07-10T07:59:18.183Z,554.00
2023-07-10T08:00:20.684Z,556.00
2023-07-10T08:01:18.192Z,556.00
2023-07-10T08:02:18.170Z,554.00
2023-07-10T08:03:18.331Z,551.00
2023-07-10T08:04:18.235Z,552.00
2023-07-10T08:05:34.292Z,553.00
2023-07-10T08:06:19.180Z,553.00
2023-07-10T08:07:18.157Z,555.00
2023-07-10T08:08:18.144Z,555.00
2023-07-10T08:09:18.136Z,554.00
2023-07-10T08:10:18.136Z,555.00
2023-07-10T08:11:18.108Z,554.00
2023-07-10T08:12:18.134Z,551.00
2023-07-10T08:13:18.109Z,551.00
2023-07-10T08:14:18.229Z,552.00
2023-07-10T08:15:18.129Z,553.00
2023-07-10T08:16:18.169Z,552.00
2023-07-10T08:17:18.070Z,552.00
2023-07-10T08:18:18.094Z,549.00
2023-07-10T08:19:18.068Z,551.00
2023-07-10T08:20:18.085Z,551.00
2023-07-10T08:21:18.078Z,550.00
2023-07-10T08:22:18.061Z,550.00
2023-07-10T08:23:18.078Z,550.00
2023-07-10T08:24:18.112Z,552.00
2023-07-10T08:25:18.165Z,553.00
2023-07-10T08:26:18.195Z,552.00
2023-07-10T08:27:18.179Z,550.00
2023-07-10T08:28:18.167Z,551.00
2023-07-10T08:29:18.166Z,552.00
2023-07-10T08:30:18.169Z,548.00
2023-07-10T08:31:18.341Z,550.00
2023-07-10T08:32:18.184Z,551.00
2023-07-10T08:33:18.279Z,549.00
2023-07-10T08:34:18.225Z,548.00
2023-07-10T08:35:18.279Z,551.00
2023-07-10T08:36:18.304Z,553.00
2023-07-10T08:37:18.349Z,551.00
2023-07-10T08:38:18.367Z,551.00
2023-07-10T08:39:18.402Z,548.00
2023-07-10T08:40:18.442Z,549.00
2023-07-10T08:41:18.441Z,547.00
2023-07-10T08:42:18.497Z,548.00
2023-07-10T08:43:18.558Z,548.00
2023-07-10T08:44:18.561Z,549.00
2023-07-10T08:45:18.595Z,549.00
2023-07-10T08:46:18.690Z,549.00
2023-07-10T08:47:18.657Z,547.00
2023-07-10T08:48:18.693Z,547.00
2023-07-10T08:49:18.700Z,547.00
2023-07-10T08:50:18.725Z,546.00
2023-07-10T08:51:18.799Z,548.00
2023-07-10T08:52:18.882Z,548.00
2023-07-10T08:53:18.903Z,546.00
2023-07-10T08:54:18.952Z,546.00
2023-07-10T08:55:19.058Z,545.00
2023-07-10T08:56:19.105Z,544.00
2023-07-10T08:57:19.169Z,542.00
2023-07-10T08:58:19.247Z,542.00
2023-07-10T08:59:19.294Z,543.00
2023-07-10T09:00:19.340Z,541.00
2023-07-10T09:01:19.460Z,539.00
2023-07-10T09:02:19.531Z,535.00
2023-07-10T09:03:19.536Z,534.00
2023-07-10T09:04:19.627Z,534.00
2023-07-10T09:05:19.646Z,537.00
2023-07-10T09:06:19.710Z,539.00
2023-07-10T09:07:19.754Z,539.00
2023-07-10T09:08:19.792Z,542.00
2023-07-10T09:09:19.882Z,546.00
2023-07-10T09:10:19.956Z,548.00
2023-07-10T09:11:20.047Z,550.00
2023-07-10T09:12:20.051Z,549.00
2023-07-10T09:13:20.148Z,549.00
2023-07-10T09:14:20.171Z,546.00
2023-07-10T09:15:20.245Z,548.00
2023-07-10T09:16:20.345Z,549.00
2023-07-10T09:17:20.382Z,554.00
2023-07-10T09:18:20.408Z,561.00
2023-07-10T09:19:20.496Z,565.00
2023-07-10T09:20:20.569Z,566.00
2023-07-10T09:21:20.590Z,567.00
2023-07-10T09:22:20.639Z,563.00
2023-07-10T09:23:20.704Z,560.00
2023-07-10T09:24:20.750Z,560.00
2023-07-10T09:25:20.801Z,561.00
2023-07-10T09:26:20.848Z,562.00
2023-07-10T09:27:20.936Z,565.00
2023-07-10T09:28:20.976Z,563.00
2023-07-10T09:29:21.012Z,561.00
2023-07-10T09:30:21.173Z,561.00
2023-07-10T09:31:21.171Z,563.00
2023-07-10T09:32:21.237Z,566.00
2023-07-10T09:33:21.253Z,581.00
2023-07-10T09:34:21.306Z,670.00
2023-07-10T09:35:21.324Z,659.00
2023-07-10T09:36:21.386Z,668.00
2023-07-10T09:37:21.445Z,643.00
2023-07-10T09:38:21.484Z,628.00
2023-07-10T09:39:21.527Z,620.00
2023-07-10T09:40:21.586Z,610.00
2023-07-10T09:41:21.654Z,595.00
2023-07-10T09:42:21.665Z,589.00
2023-07-10T09:43:21.737Z,583.00
2023-07-10T09:44:21.810Z,583.00
2023-07-10T09:45:21.852Z,583.00
2023-07-10T09:46:21.929Z,584.00
2023-07-10T09:47:22.005Z,585.00
2023-07-10T09:48:21.996Z,584.00
2023-07-10T09:49:22.096Z,583.00
2023-07-10T09:50:22.146Z,582.00
2023-07-10T09:51:22.216Z,584.00
2023-07-10T09:52:22.241Z,580.00
2023-07-10T09:53:22.283Z,579.00
2023-07-10T09:54:22.369Z,581.00
2023-07-10T09:55:22.387Z,581.00
2023-07-10T09:56:22.469Z,582.00
2023-07-10T09:57:22.495Z,582.00
2023-07-10T09:58:22.577Z,584.00
2023-07-10T09:59:22.633Z,586.00
2023-07-10T10:00:22.708Z,585.00
2023-07-10T10:01:22.807Z,584.00
2023-07-10T10:02:22.877Z,583.00
2023-07-10T10:03:22.813Z,584.00
2023-07-10T10:04:22.849Z,583.00
2023-07-10T10:05:22.880Z,585.00
2023-07-10T10:06:22.956Z,587.00
2023-07-10T10:07:22.994Z,591.00
2023-07-10T10:08:23.020Z,592.00
2023-07-10T10:09:23.049Z,593.00
2023-07-10T10:10:23.128Z,592.00
2023-07-10T10:11:23.153Z,591.00
2023-07-10T10:12:23.332Z,591.00
2023-07-10T10:13:25.301Z,590.00
2023-07-10T10:14:23.237Z,586.00
2023-07-10T10:15:23.216Z,585.00
2023-07-10T10:16:23.332Z,584.00
2023-07-10T10:17:23.218Z,582.00
2023-07-10T10:18:23.311Z,582.00
2023-07-10T10:19:23.180Z,584.00
2023-07-10T10:20:23.191Z,584.00
2023-07-10T10:21:23.212Z,584.00
2023-07-10T10:22:23.144Z,584.00
2023-07-10T10:23:23.145Z,584.00
2023-07-10T10:24:23.146Z,585.00
2023-07-10T10:25:23.137Z,585.00
2023-07-10T10:26:23.137Z,584.00
2023-07-10T10:27:23.153Z,584.00
2023-07-10T10:28:23.158Z,584.00
2023-07-10T10:29:23.147Z,584.00
2023-07-10T10:30:23.131Z,582.00
2023-07-10T10:31:23.138Z,581.00
2023-07-10T10:32:23.092Z,580.00
2023-07-10T10:33:23.099Z,579.00
2023-07-10T10:34:23.093Z,577.00
2023-07-10T10:35:23.081Z,578.00
2023-07-10T10:36:23.070Z,576.00
2023-07-10T10:37:23.106Z,577.00
2023-07-10T10:38:23.058Z,578.00
2023-07-10T10:39:23.162Z,576.00
2023-07-10T10:40:23.092Z,576.00
2023-07-10T10:41:23.057Z,576.00
2023-07-10T10:42:23.047Z,573.00
2023-07-10T10:43:23.022Z,574.00
2023-07-10T10:44:23.033Z,573.00
2023-07-10T10:45:23.027Z,575.00
2023-07-10T10:46:23.111Z,572.00
2023-07-10T10:47:23.015Z,574.00
2023-07-10T10:48:23.001Z,572.00
2023-07-10T10:49:23.005Z,571.00
2023-07-10T10:50:23.005Z,571.00
2023-07-10T10:51:23.031Z,571.00
2023-07-10T10:52:22.976Z,571.00
2023-07-10T10:53:22.948Z,568.00
2023-07-10T10:54:32.334Z,567.00
2023-07-10T10:55:23.966Z,566.00
2023-07-10T10:56:22.966Z,565.00
2023-07-10T10:57:22.934Z,565.00
2023-07-10T10:58:22.925Z,563.00
2023-07-10T10:59:22.903Z,561.00
2023-07-10T11:00:22.909Z,561.00
2023-07-10T11:01:22.944Z,563.00
2023-07-10T11:02:22.946Z,563.00
2023-07-10T11:03:22.958Z,563.00
2023-07-10T11:04:22.857Z,563.00
2023-07-10T11:05:22.884Z,565.00
2023-07-10T11:06:22.893Z,567.00
2023-07-10T11:07:22.873Z,565.00
2023-07-10T11:08:25.144Z,564.00
2023-07-10T11:09:22.821Z,564.00
2023-07-10T11:10:22.837Z,565.00
2023-07-10T11:11:22.834Z,565.00
2023-07-10T11:12:22.840Z,565.00
2023-07-10T11:13:22.829Z,565.00
2023-07-10T11:14:25.275Z,564.00
2023-07-10T11:15:22.813Z,562.00
2023-07-10T11:16:22.846Z,562.00
2023-07-10T11:17:22.848Z,565.00
2023-07-10T11:18:22.801Z,565.00
2023-07-10T11:19:22.804Z,565.00
2023-07-10T11:20:22.797Z,565.00
2023-07-10T11:21:22.822Z,563.00
2023-07-10T11:22:22.810Z,561.00
2023-07-10T11:23:22.736Z,560.00
2023-07-10T11:24:22.740Z,560.00
2023-07-10T11:25:22.727Z,560.00
2023-07-10T11:26:22.744Z,562.00
2023-07-10T11:27:22.703Z,559.00
2023-07-10T11:28:22.735Z,558.00
2023-07-10T11:29:22.705Z,558.00
2023-07-10T11:30:22.928Z,561.00
2023-07-10T11:31:22.781Z,560.00
2023-07-10T11:32:22.867Z,559.00
2023-07-10T11:33:22.672Z,559.00
2023-07-10T11:34:22.684Z,559.00
2023-07-10T11:35:22.660Z,558.00
2023-07-10T11:36:22.670Z,559.00
2023-07-10T11:37:22.668Z,556.00
2023-07-10T11:38:22.626Z,556.00
2023-07-10T11:39:22.671Z,554.00
2023-07-10T11:40:22.740Z,553.00
2023-07-10T11:41:22.657Z,553.00
2023-07-10T11:42:22.631Z,553.00
2023-07-10T11:43:22.614Z,554.00
2023-07-10T11:44:22.640Z,554.00
2023-07-10T11:45:22.596Z,556.00
2023-07-10T11:46:22.669Z,556.00
2023-07-10T11:47:22.799Z,557.00
2023-07-10T11:48:22.560Z,557.00
2023-07-10T11:49:22.582Z,558.00
2023-07-10T11:50:22.590Z,558.00
2023-07-10T11:51:22.561Z,558.00
2023-07-10T11:52:22.539Z,556.00
2023-07-10T11:53:22.555Z,555.00
2023-07-10T11:54:22.568Z,557.00
2023-07-10T11:55:22.509Z,558.00
2023-07-10T11:56:22.548Z,558.00
2023-07-10T11:57:22.506Z,556.00
2023-07-10T11:58:22.520Z,554.00
2023-07-10T11:59:22.513Z,553.00
2023-07-10T12:00:22.506Z,554.00
2023-07-10T12:01:22.521Z,553.00
2023-07-10T12:02:22.521Z,554.00
2023-07-10T12:03:22.512Z,553.00
2023-07-10T12:04:22.462Z,552.00
2023-07-10T12:05:22.518Z,554.00
2023-07-10T12:06:22.499Z,553.00
2023-07-10T12:07:22.492Z,553.00
2023-07-10T12:08:22.557Z,552.00
2023-07-10T12:09:22.545Z,553.00
2023-07-10T12:10:22.575Z,553.00
2023-07-10T12:11:22.649Z,553.00
2023-07-10T12:12:22.623Z,553.00
2023-07-10T12:13:22.657Z,553.00
2023-07-10T12:14:22.643Z,553.00
2023-07-10T12:15:22.678Z,556.00
2023-07-10T12:16:36.534Z,553.00
2023-07-10T12:17:39.558Z,553.00
2023-07-10T12:18:23.799Z,554.00
2023-07-10T12:19:22.781Z,556.00
2023-07-10T12:20:22.681Z,558.00
2023-07-10T12:21:22.674Z,557.00
2023-07-10T12:22:22.657Z,557.00
2023-07-10T12:23:22.677Z,556.00
2023-07-10T12:24:22.666Z,555.00
2023-07-10T12:25:22.672Z,555.00
2023-07-10T12:26:46.715Z,556.00
2023-07-10T12:28:26.848Z,554.00
2023-07-10T12:29:22.636Z,552.00
2023-07-10T12:30:22.641Z,553.00